Time,TemperatureF,DewpointF,PressureIn,WindDirection,WindDirectionDegrees,WindSpeedMPH,WindSpeedGustMPH,Humidity,HourlyPrecipIn,Conditions,Clouds,dailyrainin,SoftwareType,DateUTC
2013-06-20 00:00:00,82.7,77.0,29.90,NE,43,3.0,18.0,83,0.00,,,0.00,weatherlink.com 1.10,2013-06-20 04:00:00,
2013-06-20 00:15:00,82.5,77.0,29.90,ENE,71,5.0,18.0,84,0.00,,,0.00,weatherlink.com 1.10,2013-06-20 04:15:00,
2013-06-20 00:30:00,82.5,77.0,29.90,ESE,103,7.0,17.0,83,0.00,,,0.00,weatherlink.com 1.10,2013-06-20 04:30:00,
2013-06-20 00:45:00,82.5,77.0,29.90,ENE,75,10.0,17.0,83,0.00,,,0.00,weatherlink.com 1.10,2013-06-20 04:45:00,
2013-06-20 01:00:00,82.5,77.0,29.89,East,89,16.0,21.0,83,0.00,,,0.00,weatherlink.com 1.10,2013-06-20 05:00:00,
2013-06-20 01:15:00,82.5,77.0,29.88,East,93,8.0,21.0,82,0.00,,,0.00,weatherlink.com 1.10,2013-06-20 05:15:00,
2013-06-20 01:30:00,82.2,76.0,29.88,ENE,77,8.0,19.0,82,0.00,,,0.00,weatherlink.com 1.10,2013-06-20 05:30:00,
2013-06-20 01:45:00,82.3,77.0,29.87,East,80,9.0,21.0,83,0.00,,,0.00,weatherlink.com 1.10,2013-06-20 05:45:00,
2013-06-20 02:00:00,82.3,77.0,29.86,ENE,78,4.0,19.0,84,0.00,,,0.00,weatherlink.com 1.10,2013-06-20 06:00:00,
2013-06-20 02:15:00,82.2,77.0,29.86,ESE,123,5.0,17.0,83,0.00,,,0.00,weatherlink.com 1.10,2013-06-20 06:15:00,
2013-06-20 02:30:00,82.2,77.0,29.85,ESE,105,8.0,15.0,83,0.00,,,0.00,weatherlink.com 1.10,2013-06-20 06:30:00,
2013-06-20 02:45:00,82.2,77.0,29.85,East,86,10.0,18.0,83,0.00,,,0.00,weatherlink.com 1.10,2013-06-20 06:45:00,
2013-06-20 03:00:00,82.3,77.0,29.85,ENE,74,9.0,19.0,83,0.00,,,0.00,weatherlink.com 1.10,2013-06-20 07:00:00,
2013-06-20 03:15:00,82.1,77.0,29.85,ENE,70,9.0,16.0,83,0.00,,,0.00,weatherlink.com 1.10,2013-06-20 07:15:00,
2013-06-20 03:30:00,82.1,77.0,29.85,ESE,117,7.0,17.0,84,0.00,,,0.00,weatherlink.com 1.10,2013-06-20 07:30:00,
2013-06-20 03:45:00,82.2,77.0,29.85,ENE,75,9.0,19.0,84,0.00,,,0.00,weatherlink.com 1.10,2013-06-20 07:45:00,
2013-06-20 04:00:00,82.3,77.0,29.86,ESE,108,7.0,17.0,84,0.00,,,0.00,weatherlink.com 1.10,2013-06-20 08:00:00,
2013-06-20 04:15:00,82.2,77.0,29.85,East,96,7.0,15.0,84,0.00,,,0.00,weatherlink.com 1.10,2013-06-20 08:15:00,
2013-06-20 04:30:00,82.2,77.0,29.85,East,82,16.0,16.0,84,0.00,,,0.00,weatherlink.com 1.10,2013-06-20 08:30:00,
2013-06-20 04:45:00,82.2,77.0,29.85,NE,46,11.0,16.0,85,0.00,,,0.00,weatherlink.com 1.10,2013-06-20 08:45:00,
2013-06-20 05:00:00,82.2,77.0,29.85,ENE,76,2.0,17.0,84,0.00,,,0.00,weatherlink.com 1.10,2013-06-20 09:00:00,
2013-06-20 05:15:00,81.9,76.0,29.85,ENE,70,12.0,17.0,83,0.00,,,0.00,weatherlink.com 1.10,2013-06-20 09:15:00,
2013-06-20 05:30:00,81.7,77.0,29.86,East,91,8.0,19.0,85,0.00,,,0.00,weatherlink.com 1.10,2013-06-20 09:30:00,
2013-06-20 05:45:00,81.7,77.0,29.86,NE,41,5.0,22.0,84,0.00,,,0.00,weatherlink.com 1.10,2013-06-20 09:45:00,
2013-06-20 06:00:00,81.8,77.0,29.86,ESE,113,12.0,23.0,84,0.00,,,0.00,weatherlink.com 1.10,2013-06-20 10:00:00,
2013-06-20 06:15:00,81.8,77.0,29.86,ENE,63,12.0,15.0,84,0.00,,,0.00,weatherlink.com 1.10,2013-06-20 10:15:00,
2013-06-20 06:30:00,81.9,77.0,29.87,ESE,103,7.0,18.0,85,0.00,,,0.00,weatherlink.com 1.10,2013-06-20 10:30:00,
2013-06-20 06:45:00,82.1,77.0,29.87,East,83,8.0,18.0,83,0.00,,,0.00,weatherlink.com 1.10,2013-06-20 10:45:00,
2013-06-20 07:00:00,82.3,77.0,29.88,ENE,77,4.0,18.0,83,0.00,,,0.00,weatherlink.com 1.10,2013-06-20 11:00:00,
2013-06-20 07:15:00,82.5,77.0,29.88,SSE,150,6.0,21.0,82,0.00,,,0.00,weatherlink.com 1.10,2013-06-20 11:15:00,
2013-06-20 07:30:00,82.7,77.0,29.89,ENE,70,8.0,16.0,83,0.00,,,0.00,weatherlink.com 1.10,2013-06-20 11:30:00,
2013-06-20 07:45:00,82.9,77.0,29.89,ESE,121,8.0,15.0,82,0.00,,,0.00,weatherlink.com 1.10,2013-06-20 11:45:00,
2013-06-20 08:01:00,83.3,77.0,29.89,ENE,76,9.0,22.0,81,0.00,,,0.00,weatherlink.com 1.10,2013-06-20 12:01:00,
2013-06-20 08:16:00,83.4,77.0,29.90,ESE,115,5.0,18.0,81,0.00,,,0.00,weatherlink.com 1.10,2013-06-20 12:16:00,
2013-06-20 08:31:00,83.7,77.0,29.90,ESE,111,10.0,21.0,80,0.00,,,0.00,weatherlink.com 1.10,2013-06-20 12:31:00,
2013-06-20 08:46:00,84.1,77.0,29.90,East,80,16.0,23.0,79,0.00,,,0.00,weatherlink.com 1.10,2013-06-20 12:46:00,
2013-06-20 09:01:00,84.8,77.0,29.91,East,91,7.0,22.0,78,0.00,,,0.00,weatherlink.com 1.10,2013-06-20 13:01:00,
2013-06-20 09:16:00,85.4,76.0,29.91,East,90,19.0,25.0,74,0.00,,,0.00,weatherlink.com 1.10,2013-06-20 13:16:00,
2013-06-20 09:31:00,85.6,77.0,29.92,ESE,115,14.0,27.0,75,0.00,,,0.00,weatherlink.com 1.10,2013-06-20 13:31:00,
2013-06-20 09:46:00,85.6,77.0,29.92,East,100,13.0,25.0,75,0.00,,,0.00,weatherlink.com 1.10,2013-06-20 13:46:00,
2013-06-20 10:01:00,86.1,76.0,29.92,East,98,16.0,24.0,71,0.00,,,0.00,weatherlink.com 1.10,2013-06-20 14:01:00,
2013-06-20 10:16:00,86.4,76.0,29.91,ENE,67,12.0,23.0,72,0.00,,,0.00,weatherlink.com 1.10,2013-06-20 14:16:00,
2013-06-20 10:31:00,86.9,76.0,29.92,East,88,17.0,28.0,71,0.00,,,0.00,weatherlink.com 1.10,2013-06-20 14:31:00,
2013-06-20 10:46:00,86.0,78.0,29.92,ESE,110,9.0,21.0,76,0.00,,,0.00,weatherlink.com 1.10,2013-06-20 14:46:00,
2013-06-20 11:01:00,84.3,78.0,29.92,ESE,123,19.0,23.0,80,0.00,,,0.00,weatherlink.com 1.10,2013-06-20 15:01:00,
2013-06-20 11:16:00,86.6,77.0,29.91,ESE,113,15.0,25.0,73,0.00,,,0.00,weatherlink.com 1.10,2013-06-20 15:16:00,
2013-06-20 11:31:00,86.9,77.0,29.91,NE,53,6.0,24.0,72,0.00,,,0.00,weatherlink.com 1.10,2013-06-20 15:31:00,
2013-06-20 11:46:00,87.8,76.0,29.90,ENE,67,8.0,19.0,69,0.00,,,0.00,weatherlink.com 1.10,2013-06-20 15:46:00,
2013-06-20 12:01:00,87.6,75.0,29.90,ESE,123,14.0,26.0,67,0.00,,,0.00,weatherlink.com 1.10,2013-06-20 16:01:00,
2013-06-20 12:16:00,87.4,75.0,29.89,ESE,108,17.0,27.0,67,0.00,,,0.00,weatherlink.com 1.10,2013-06-20 16:16:00,
2013-06-20 12:31:00,86.9,76.0,29.89,NNE,25,9.0,25.0,69,0.00,,,0.00,weatherlink.com 1.10,2013-06-20 16:31:00,
2013-06-20 12:46:00,88.0,76.0,29.89,East,100,15.0,22.0,67,0.00,,,0.00,weatherlink.com 1.10,2013-06-20 16:46:00,
2013-06-20 13:01:00,87.6,76.0,29.89,ESE,107,15.0,25.0,68,0.00,,,0.00,weatherlink.com 1.10,2013-06-20 17:01:00,
2013-06-20 13:16:00,86.9,76.0,29.89,ESE,122,18.0,22.0,69,0.00,,,0.00,weatherlink.com 1.10,2013-06-20 17:16:00,
2013-06-20 13:31:00,87.0,76.0,29.88,ESE,102,8.0,24.0,69,0.00,,,0.00,weatherlink.com 1.10,2013-06-20 17:31:00,
2013-06-20 13:46:00,87.1,76.0,29.87,SE,137,9.0,25.0,70,0.00,,,0.00,weatherlink.com 1.10,2013-06-20 17:46:00,
2013-06-20 14:01:00,87.2,76.0,29.86,ENE,65,12.0,24.0,70,0.00,,,0.00,weatherlink.com 1.10,2013-06-20 18:01:00,
2013-06-20 14:16:00,87.7,76.0,29.86,East,84,13.0,25.0,69,0.00,,,0.00,weatherlink.com 1.10,2013-06-20 18:16:00,
2013-06-20 14:31:00,86.2,76.0,29.86,ESE,103,7.0,25.0,72,0.00,,,0.00,weatherlink.com 1.10,2013-06-20 18:31:00,
2013-06-20 14:46:00,86.1,77.0,29.85,East,95,10.0,21.0,73,0.00,,,0.00,weatherlink.com 1.10,2013-06-20 18:46:00,
2013-06-20 15:16:00,85.9,76.0,29.84,ESE,112,10.0,22.0,73,0.00,,,0.00,weatherlink.com 1.10,2013-06-20 19:16:00,
2013-06-20 15:31:00,85.6,77.0,29.84,East,90,13.0,25.0,75,0.00,,,0.00,weatherlink.com 1.10,2013-06-20 19:31:00,
2013-06-20 15:46:00,85.7,77.0,29.83,East,91,13.0,21.0,74,0.00,,,0.00,weatherlink.com 1.10,2013-06-20 19:46:00,
2013-06-20 16:01:00,85.0,76.0,29.83,East,90,10.0,23.0,75,0.00,,,0.00,weatherlink.com 1.10,2013-06-20 20:01:00,
2013-06-20 16:16:00,85.2,76.0,29.83,East,98,9.0,21.0,74,0.00,,,0.00,weatherlink.com 1.10,2013-06-20 20:16:00,
2013-06-20 16:31:00,85.3,76.0,29.82,East,84,10.0,22.0,74,0.00,,,0.00,weatherlink.com 1.10,2013-06-20 20:31:00,
2013-06-20 16:46:00,84.9,77.0,29.83,NE,39,8.0,23.0,76,0.00,,,0.00,weatherlink.com 1.10,2013-06-20 20:46:00,
2013-06-20 17:01:00,84.5,76.0,29.83,NE,55,15.0,21.0,76,0.00,,,0.00,weatherlink.com 1.10,2013-06-20 21:01:00,
2013-06-20 17:16:00,84.5,77.0,29.83,ENE,77,12.0,25.0,77,0.00,,,0.00,weatherlink.com 1.10,2013-06-20 21:16:00,
2013-06-20 17:31:00,84.1,77.0,29.82,NNE,29,10.0,17.0,78,0.00,,,0.00,weatherlink.com 1.10,2013-06-20 21:31:00,
2013-06-20 17:46:00,83.7,76.0,29.83,ESE,104,12.0,23.0,78,0.00,,,0.00,weatherlink.com 1.10,2013-06-20 21:46:00,
2013-06-20 18:01:00,83.4,76.0,29.84,ENE,74,11.0,26.0,79,0.00,,,0.00,weatherlink.com 1.10,2013-06-20 22:01:00,
2013-06-20 18:16:00,83.3,75.0,29.84,ENE,71,14.0,19.0,77,0.00,,,0.00,weatherlink.com 1.10,2013-06-20 22:16:00,
2013-06-20 18:31:00,83.1,75.0,29.84,ESE,112,13.0,24.0,77,0.00,,,0.00,weatherlink.com 1.10,2013-06-20 22:31:00,
2013-06-20 18:46:00,83.1,76.0,29.84,ENE,69,16.0,22.0,78,0.00,,,0.00,weatherlink.com 1.10,2013-06-20 22:46:00,
2013-06-20 19:01:00,82.9,75.0,29.85,East,84,7.0,19.0,78,0.00,,,0.00,weatherlink.com 1.10,2013-06-20 23:01:00,
2013-06-20 19:16:00,82.8,76.0,29.85,ENE,71,21.0,21.0,79,0.00,,,0.00,weatherlink.com 1.10,2013-06-20 23:16:00,
2013-06-20 19:31:00,82.7,75.0,29.85,East,82,13.0,22.0,78,0.00,,,0.00,weatherlink.com 1.10,2013-06-20 23:31:00,
2013-06-20 19:46:00,82.7,75.0,29.86,ENE,59,7.0,22.0,78,0.00,,,0.00,weatherlink.com 1.10,2013-06-20 23:46:00,
2013-06-20 20:01:00,82.7,75.0,29.86,ENE,59,8.0,21.0,78,0.00,,,0.00,weatherlink.com 1.10,2013-06-21 00:01:00,
2013-06-20 20:16:00,82.7,75.0,29.87,East,88,10.0,24.0,78,0.00,,,0.00,weatherlink.com 1.10,2013-06-21 00:16:00,
2013-06-20 20:31:00,82.7,75.0,29.88,NE,48,13.0,21.0,78,0.00,,,0.00,weatherlink.com 1.10,2013-06-21 00:31:00,
2013-06-20 20:46:00,82.7,76.0,29.89,NE,40,7.0,21.0,80,0.00,,,0.00,weatherlink.com 1.10,2013-06-21 00:46:00,
2013-06-20 21:01:00,82.5,76.0,29.90,ENE,78,4.0,19.0,81,0.00,,,0.00,weatherlink.com 1.10,2013-06-21 01:01:00,
2013-06-20 21:16:00,82.5,76.0,29.90,ENE,65,12.0,22.0,80,0.00,,,0.00,weatherlink.com 1.10,2013-06-21 01:16:00,
2013-06-20 21:31:00,82.4,76.0,29.91,East,96,9.0,22.0,80,0.00,,,0.00,weatherlink.com 1.10,2013-06-21 01:31:00,
2013-06-20 21:46:00,82.5,76.0,29.91,NE,56,10.0,16.0,81,0.00,,,0.00,weatherlink.com 1.10,2013-06-21 01:46:00,
2013-06-20 22:01:00,82.4,76.0,29.92,ENE,57,3.0,21.0,81,0.00,,,0.00,weatherlink.com 1.10,2013-06-21 02:01:00,
2013-06-20 22:16:00,82.4,76.0,29.93,ENE,63,8.0,16.0,82,0.00,,,0.00,weatherlink.com 1.10,2013-06-21 02:16:00,
2013-06-20 22:31:00,82.3,76.0,29.93,East,100,10.0,18.0,81,0.00,,,0.00,weatherlink.com 1.10,2013-06-21 02:31:00,
2013-06-20 22:47:00,82.3,76.0,29.93,ENE,64,8.0,17.0,81,0.00,,,0.00,weatherlink.com 1.10,2013-06-21 02:47:00,
2013-06-20 23:01:00,82.3,76.0,29.93,ESE,110,12.0,17.0,81,0.00,,,0.00,weatherlink.com 1.10,2013-06-21 03:01:00,
2013-06-20 23:16:00,82.3,76.0,29.93,East,98,6.0,16.0,81,0.00,,,0.00,weatherlink.com 1.10,2013-06-21 03:16:00,
2013-06-20 23:31:00,82.2,76.0,29.92,ENE,69,7.0,17.0,81,0.00,,,0.00,weatherlink.com 1.10,2013-06-21 03:31:00,
2013-06-20 23:46:00,82.1,76.0,29.92,East,79,18.0,18.0,82,0.00,,,0.00,weatherlink.com 1.10,2013-06-21 03:46:00,